sensor_id;sensor_type;location;lat;lon;timestamp;P1;durP1;ratioP1;P2;durP2;ratioP2
22737;SDS011;11536;50.860;4.286;2023-06-05T00:00:42;3.80;;;1.30;;
22737;SDS011;11536;50.860;4.286;2023-06-05T00:03:07;3.50;;;1.25;;
22737;SDS011;11536;50.860;4.286;2023-06-05T00:05:33;5.55;;;1.80;;
22737;SDS011;11536;50.860;4.286;2023-06-05T00:07:58;4.65;;;1.10;;
22737;SDS011;11536;50.860;4.286;2023-06-05T00:10:24;4.57;;;1.35;;
22737;SDS011;11536;50.860;4.286;2023-06-05T00:12:50;5.00;;;1.67;;
22737;SDS011;11536;50.860;4.286;2023-06-05T00:15:16;3.90;;;1.60;;
22737;SDS011;11536;50.860;4.286;2023-06-05T00:17:41;6.78;;;1.70;;
22737;SDS011;11536;50.860;4.286;2023-06-05T00:20:07;6.00;;;1.60;;
22737;SDS011;11536;50.860;4.286;2023-06-05T00:22:34;4.13;;;1.52;;
22737;SDS011;11536;50.860;4.286;2023-06-05T00:25:00;5.10;;;1.40;;
22737;SDS011;11536;50.860;4.286;2023-06-05T00:27:25;5.20;;;1.92;;
22737;SDS011;11536;50.860;4.286;2023-06-05T00:29:52;4.65;;;1.67;;
22737;SDS011;11536;50.860;4.286;2023-06-05T00:32:18;6.18;;;1.55;;
22737;SDS011;11536;50.860;4.286;2023-06-05T00:34:43;6.25;;;2.05;;
22737;SDS011;11536;50.860;4.286;2023-06-05T00:37:10;7.68;;;1.60;;
22737;SDS011;11536;50.860;4.286;2023-06-05T00:39:36;5.47;;;1.80;;
22737;SDS011;11536;50.860;4.286;2023-06-05T00:42:01;4.18;;;1.50;;
22737;SDS011;11536;50.860;4.286;2023-06-05T00:44:27;8.63;;;1.70;;
22737;SDS011;11536;50.860;4.286;2023-06-05T00:46:53;6.05;;;1.90;;
22737;SDS011;11536;50.860;4.286;2023-06-05T00:49:19;2.97;;;1.20;;
22737;SDS011;11536;50.860;4.286;2023-06-05T00:51:45;4.70;;;1.33;;
22737;SDS011;11536;50.860;4.286;2023-06-05T00:54:12;4.60;;;1.27;;
22737;SDS011;11536;50.860;4.286;2023-06-05T00:56:39;5.38;;;1.95;;
22737;SDS011;11536;50.860;4.286;2023-06-05T00:59:07;6.22;;;1.77;;
22737;SDS011;11536;50.860;4.286;2023-06-05T01:01:33;3.35;;;1.58;;
22737;SDS011;11536;50.860;4.286;2023-06-05T01:03:59;4.90;;;1.80;;
22737;SDS011;11536;50.860;4.286;2023-06-05T01:06:26;5.38;;;1.60;;
22737;SDS011;11536;50.860;4.286;2023-06-05T01:08:53;5.78;;;1.75;;
22737;SDS011;11536;50.860;4.286;2023-06-05T01:14:21;7.13;;;1.88;;
22737;SDS011;11536;50.860;4.286;2023-06-05T01:16:48;5.82;;;1.55;;
22737;SDS011;11536;50.860;4.286;2023-06-05T01:19:18;5.88;;;1.73;;
22737;SDS011;11536;50.860;4.286;2023-06-05T01:21:45;3.83;;;1.58;;
22737;SDS011;11536;50.860;4.286;2023-06-05T01:24:11;6.47;;;1.83;;
22737;SDS011;11536;50.860;4.286;2023-06-05T01:26:39;5.35;;;1.63;;
22737;SDS011;11536;50.860;4.286;2023-06-05T01:29:08;10.80;;;1.73;;
22737;SDS011;11536;50.860;4.286;2023-06-05T01:31:37;4.63;;;1.60;;
22737;SDS011;11536;50.860;4.286;2023-06-05T01:34:08;5.47;;;1.60;;
22737;SDS011;11536;50.860;4.286;2023-06-05T01:36:38;6.18;;;1.73;;
22737;SDS011;11536;50.860;4.286;2023-06-05T01:39:05;5.60;;;1.98;;
22737;SDS011;11536;50.860;4.286;2023-06-05T01:41:32;5.30;;;1.75;;
22737;SDS011;11536;50.860;4.286;2023-06-05T01:43:58;5.22;;;1.73;;
22737;SDS011;11536;50.860;4.286;2023-06-05T01:46:26;7.60;;;2.08;;
22737;SDS011;11536;50.860;4.286;2023-06-05T01:48:51;7.25;;;2.25;;
22737;SDS011;11536;50.860;4.286;2023-06-05T01:51:19;5.95;;;1.98;;
22737;SDS011;11536;50.860;4.286;2023-06-05T01:53:45;7.78;;;2.10;;
22737;SDS011;11536;50.860;4.286;2023-06-05T01:56:13;5.45;;;1.50;;
22737;SDS011;11536;50.860;4.286;2023-06-05T01:58:44;5.55;;;1.63;;
22737;SDS011;11536;50.860;4.286;2023-06-05T02:01:11;4.40;;;1.75;;
22737;SDS011;11536;50.860;4.286;2023-06-05T02:03:37;6.13;;;2.03;;
22737;SDS011;11536;50.860;4.286;2023-06-05T02:06:03;6.38;;;2.53;;
22737;SDS011;11536;50.860;4.286;2023-06-05T02:08:28;6.03;;;2.08;;
22737;SDS011;11536;50.860;4.286;2023-06-05T02:10:54;4.75;;;2.17;;
22737;SDS011;11536;50.860;4.286;2023-06-05T02:13:19;4.70;;;1.90;;
22737;SDS011;11536;50.860;4.286;2023-06-05T02:15:47;5.28;;;2.08;;
22737;SDS011;11536;50.860;4.286;2023-06-05T02:18:15;5.35;;;1.80;;
22737;SDS011;11536;50.860;4.286;2023-06-05T02:20:41;3.65;;;1.42;;
22737;SDS011;11536;50.860;4.286;2023-06-05T02:23:07;4.82;;;1.90;;
22737;SDS011;11536;50.860;4.286;2023-06-05T02:25:33;7.30;;;2.13;;
22737;SDS011;11536;50.860;4.286;2023-06-05T02:27:59;5.10;;;1.80;;
22737;SDS011;11536;50.860;4.286;2023-06-05T02:30:24;5.88;;;2.10;;
22737;SDS011;11536;50.860;4.286;2023-06-05T02:32:50;4.50;;;1.90;;
22737;SDS011;11536;50.860;4.286;2023-06-05T02:35:21;6.95;;;2.28;;
22737;SDS011;11536;50.860;4.286;2023-06-05T02:37:48;5.82;;;1.90;;
22737;SDS011;11536;50.860;4.286;2023-06-05T02:40:13;6.95;;;1.90;;
22737;SDS011;11536;50.860;4.286;2023-06-05T02:42:39;7.13;;;2.42;;
22737;SDS011;11536;50.860;4.286;2023-06-05T02:45:06;5.28;;;1.92;;
22737;SDS011;11536;50.860;4.286;2023-06-05T02:47:33;5.35;;;2.05;;
22737;SDS011;11536;50.860;4.286;2023-06-05T02:49:59;4.80;;;1.95;;
22737;SDS011;11536;50.860;4.286;2023-06-05T02:52:25;5.90;;;1.65;;
22737;SDS011;11536;50.860;4.286;2023-06-05T02:54:52;8.27;;;2.22;;
22737;SDS011;11536;50.860;4.286;2023-06-05T02:57:18;5.65;;;2.30;;
22737;SDS011;11536;50.860;4.286;2023-06-05T02:59:44;5.20;;;2.13;;
22737;SDS011;11536;50.860;4.286;2023-06-05T03:02:10;7.65;;;2.58;;
22737;SDS011;11536;50.860;4.286;2023-06-05T03:04:36;6.25;;;1.98;;
22737;SDS011;11536;50.860;4.286;2023-06-05T03:07:04;7.03;;;2.20;;
22737;SDS011;11536;50.860;4.286;2023-06-05T03:09:30;4.68;;;1.92;;
22737;SDS011;11536;50.860;4.286;2023-06-05T03:11:56;6.72;;;1.90;;
22737;SDS011;11536;50.860;4.286;2023-06-05T03:14:23;7.05;;;2.78;;
22737;SDS011;11536;50.860;4.286;2023-06-05T03:16:49;5.78;;;2.22;;
22737;SDS011;11536;50.860;4.286;2023-06-05T03:19:15;7.82;;;2.15;;
22737;SDS011;11536;50.860;4.286;2023-06-05T03:21:41;6.93;;;2.28;;
22737;SDS011;11536;50.860;4.286;2023-06-05T03:24:08;5.25;;;2.20;;
22737;SDS011;11536;50.860;4.286;2023-06-05T03:26:39;6.65;;;2.22;;
22737;SDS011;11536;50.860;4.286;2023-06-05T03:29:12;5.18;;;2.40;;
22737;SDS011;11536;50.860;4.286;2023-06-05T03:31:38;4.78;;;1.95;;
22737;SDS011;11536;50.860;4.286;2023-06-05T03:34:03;6.93;;;2.17;;
22737;SDS011;11536;50.860;4.286;2023-06-05T03:36:29;6.32;;;2.20;;
22737;SDS011;11536;50.860;4.286;2023-06-05T03:38:58;5.50;;;1.85;;
22737;SDS011;11536;50.860;4.286;2023-06-05T03:41:23;5.50;;;2.53;;
22737;SDS011;11536;50.860;4.286;2023-06-05T03:43:50;6.13;;;2.28;;
22737;SDS011;11536;50.860;4.286;2023-06-05T03:46:16;4.97;;;2.45;;
22737;SDS011;11536;50.860;4.286;2023-06-05T03:48:45;5.50;;;2.25;;
22737;SDS011;11536;50.860;4.286;2023-06-05T03:51:11;5.20;;;2.20;;
22737;SDS011;11536;50.860;4.286;2023-06-05T03:53:36;6.03;;;2.22;;
22737;SDS011;11536;50.860;4.286;2023-06-05T03:56:05;5.57;;;2.47;;
22737;SDS011;11536;50.860;4.286;2023-06-05T03:58:31;6.93;;;2.42;;
22737;SDS011;11536;50.860;4.286;2023-06-05T04:00:57;7.20;;;1.98;;
22737;SDS011;11536;50.860;4.286;2023-06-05T04:03:23;7.05;;;2.40;;
22737;SDS011;11536;50.860;4.286;2023-06-05T04:05:50;5.85;;;2.40;;
22737;SDS011;11536;50.860;4.286;2023-06-05T04:08:16;6.38;;;2.53;;
22737;SDS011;11536;50.860;4.286;2023-06-05T04:10:41;6.32;;;2.42;;
22737;SDS011;11536;50.860;4.286;2023-06-05T04:13:07;6.75;;;2.60;;
22737;SDS011;11536;50.860;4.286;2023-06-05T04:15:33;6.32;;;1.95;;
22737;SDS011;11536;50.860;4.286;2023-06-05T04:17:58;6.15;;;2.63;;
22737;SDS011;11536;50.860;4.286;2023-06-05T04:20:24;7.35;;;2.70;;
22737;SDS011;11536;50.860;4.286;2023-06-05T04:22:50;6.15;;;2.47;;
22737;SDS011;11536;50.860;4.286;2023-06-05T04:25:16;7.05;;;2.33;;
22737;SDS011;11536;50.860;4.286;2023-06-05T04:27:42;6.88;;;2.92;;
22737;SDS011;11536;50.860;4.286;2023-06-05T04:30:09;5.10;;;2.20;;
22737;SDS011;11536;50.860;4.286;2023-06-05T04:32:37;7.05;;;3.08;;
22737;SDS011;11536;50.860;4.286;2023-06-05T04:37:38;7.80;;;2.53;;
22737;SDS011;11536;50.860;4.286;2023-06-05T04:40:04;8.48;;;2.92;;
22737;SDS011;11536;50.860;4.286;2023-06-05T04:42:33;8.00;;;2.58;;
22737;SDS011;11536;50.860;4.286;2023-06-05T04:45:01;7.82;;;2.78;;
22737;SDS011;11536;50.860;4.286;2023-06-05T04:47:29;6.93;;;3.05;;
22737;SDS011;11536;50.860;4.286;2023-06-05T04:49:59;7.35;;;3.13;;
22737;SDS011;11536;50.860;4.286;2023-06-05T04:52:28;8.88;;;3.70;;
22737;SDS011;11536;50.860;4.286;2023-06-05T04:54:54;8.60;;;2.90;;
22737;SDS011;11536;50.860;4.286;2023-06-05T04:57:20;7.65;;;3.10;;
22737;SDS011;11536;50.860;4.286;2023-06-05T04:59:46;8.23;;;3.17;;
22737;SDS011;11536;50.860;4.286;2023-06-05T05:02:12;5.45;;;2.65;;
22737;SDS011;11536;50.860;4.286;2023-06-05T05:04:38;9.05;;;3.10;;
22737;SDS011;11536;50.860;4.286;2023-06-05T05:07:03;7.07;;;3.22;;
22737;SDS011;11536;50.860;4.286;2023-06-05T05:09:30;7.25;;;3.10;;
22737;SDS011;11536;50.860;4.286;2023-06-05T05:11:56;7.75;;;3.15;;
22737;SDS011;11536;50.860;4.286;2023-06-05T05:14:23;6.68;;;3.03;;
22737;SDS011;11536;50.860;4.286;2023-06-05T05:16:51;7.13;;;2.85;;
22737;SDS011;11536;50.860;4.286;2023-06-05T05:19:16;8.82;;;3.42;;
22737;SDS011;11536;50.860;4.286;2023-06-05T05:21:42;9.20;;;3.55;;
22737;SDS011;11536;50.860;4.286;2023-06-05T05:24:08;6.30;;;2.72;;
22737;SDS011;11536;50.860;4.286;2023-06-05T05:26:33;9.70;;;3.85;;
22737;SDS011;11536;50.860;4.286;2023-06-05T05:28:59;7.65;;;3.67;;
22737;SDS011;11536;50.860;4.286;2023-06-05T05:31:24;8.50;;;3.63;;
22737;SDS011;11536;50.860;4.286;2023-06-05T05:33:50;8.98;;;3.63;;
22737;SDS011;11536;50.860;4.286;2023-06-05T05:36:15;8.32;;;3.70;;
22737;SDS011;11536;50.860;4.286;2023-06-05T05:38:41;9.70;;;3.50;;
22737;SDS011;11536;50.860;4.286;2023-06-05T05:41:06;8.13;;;3.72;;
22737;SDS011;11536;50.860;4.286;2023-06-05T05:43:32;8.80;;;3.47;;
22737;SDS011;11536;50.860;4.286;2023-06-05T05:45:58;7.88;;;3.70;;
22737;SDS011;11536;50.860;4.286;2023-06-05T05:48:23;8.93;;;3.58;;
22737;SDS011;11536;50.860;4.286;2023-06-05T05:50:49;9.20;;;3.58;;
22737;SDS011;11536;50.860;4.286;2023-06-05T05:53:15;8.98;;;3.88;;
22737;SDS011;11536;50.860;4.286;2023-06-05T05:55:40;8.48;;;3.72;;
22737;SDS011;11536;50.860;4.286;2023-06-05T05:58:06;9.40;;;3.55;;
22737;SDS011;11536;50.860;4.286;2023-06-05T06:00:32;9.38;;;3.88;;
22737;SDS011;11536;50.860;4.286;2023-06-05T06:02:59;6.40;;;3.35;;
22737;SDS011;11536;50.860;4.286;2023-06-05T06:05:25;11.68;;;3.92;;
22737;SDS011;11536;50.860;4.286;2023-06-05T06:07:51;8.55;;;3.83;;
22737;SDS011;11536;50.860;4.286;2023-06-05T06:10:16;11.43;;;3.72;;
22737;SDS011;11536;50.860;4.286;2023-06-05T06:12:43;9.38;;;3.92;;
22737;SDS011;11536;50.860;4.286;2023-06-05T06:15:09;8.98;;;3.75;;
22737;SDS011;11536;50.860;4.286;2023-06-05T06:17:36;7.18;;;3.70;;
22737;SDS011;11536;50.860;4.286;2023-06-05T06:20:02;8.30;;;3.35;;
22737;SDS011;11536;50.860;4.286;2023-06-05T06:22:29;9.27;;;4.13;;
22737;SDS011;11536;50.860;4.286;2023-06-05T06:24:54;9.30;;;3.80;;
22737;SDS011;11536;50.860;4.286;2023-06-05T06:27:20;8.85;;;3.80;;
22737;SDS011;11536;50.860;4.286;2023-06-05T06:29:47;7.93;;;3.83;;
22737;SDS011;11536;50.860;4.286;2023-06-05T06:32:15;9.80;;;3.72;;
22737;SDS011;11536;50.860;4.286;2023-06-05T06:34:41;9.25;;;3.80;;
22737;SDS011;11536;50.860;4.286;2023-06-05T06:37:09;11.65;;;3.85;;
22737;SDS011;11536;50.860;4.286;2023-06-05T06:39:44;8.05;;;4.03;;
22737;SDS011;11536;50.860;4.286;2023-06-05T06:42:10;10.13;;;4.22;;
22737;SDS011;11536;50.860;4.286;2023-06-05T06:44:37;7.78;;;3.63;;
22737;SDS011;11536;50.860;4.286;2023-06-05T06:47:04;8.80;;;4.10;;
22737;SDS011;11536;50.860;4.286;2023-06-05T06:49:31;9.40;;;4.20;;
22737;SDS011;11536;50.860;4.286;2023-06-05T06:51:56;10.02;;;3.88;;
22737;SDS011;11536;50.860;4.286;2023-06-05T06:54:22;9.30;;;3.85;;
22737;SDS011;11536;50.860;4.286;2023-06-05T06:56:48;7.70;;;3.65;;
22737;SDS011;11536;50.860;4.286;2023-06-05T06:59:16;9.23;;;4.05;;
22737;SDS011;11536;50.860;4.286;2023-06-05T07:01:43;10.48;;;4.68;;
22737;SDS011;11536;50.860;4.286;2023-06-05T07:04:15;8.85;;;4.00;;
22737;SDS011;11536;50.860;4.286;2023-06-05T07:06:45;8.20;;;4.00;;
22737;SDS011;11536;50.860;4.286;2023-06-05T07:09:13;10.45;;;4.30;;
22737;SDS011;11536;50.860;4.286;2023-06-05T07:11:39;8.00;;;3.58;;
22737;SDS011;11536;50.860;4.286;2023-06-05T07:14:05;8.73;;;3.90;;
22737;SDS011;11536;50.860;4.286;2023-06-05T07:16:32;8.00;;;3.85;;
22737;SDS011;11536;50.860;4.286;2023-06-05T07:18:58;9.80;;;4.30;;
22737;SDS011;11536;50.860;4.286;2023-06-05T07:21:24;9.07;;;3.90;;
22737;SDS011;11536;50.860;4.286;2023-06-05T07:23:50;8.38;;;3.95;;
22737;SDS011;11536;50.860;4.286;2023-06-05T07:26:19;8.77;;;4.00;;
22737;SDS011;11536;50.860;4.286;2023-06-05T07:28:45;9.68;;;4.22;;
22737;SDS011;11536;50.860;4.286;2023-06-05T07:31:14;9.45;;;4.10;;
22737;SDS011;11536;50.860;4.286;2023-06-05T07:33:40;9.98;;;4.22;;
22737;SDS011;11536;50.860;4.286;2023-06-05T07:36:07;10.15;;;4.43;;
22737;SDS011;11536;50.860;4.286;2023-06-05T07:38:33;10.98;;;4.15;;
22737;SDS011;11536;50.860;4.286;2023-06-05T07:40:58;10.65;;;4.63;;
22737;SDS011;11536;50.860;4.286;2023-06-05T07:43:26;11.15;;;4.45;;
22737;SDS011;11536;50.860;4.286;2023-06-05T07:45:52;11.07;;;4.57;;
22737;SDS011;11536;50.860;4.286;2023-06-05T07:48:18;10.60;;;4.35;;
22737;SDS011;11536;50.860;4.286;2023-06-05T07:50:44;8.10;;;4.35;;
22737;SDS011;11536;50.860;4.286;2023-06-05T07:53:10;8.25;;;4.43;;
22737;SDS011;11536;50.860;4.286;2023-06-05T07:55:36;10.02;;;4.65;;
22737;SDS011;11536;50.860;4.286;2023-06-05T07:58:01;12.95;;;4.53;;
22737;SDS011;11536;50.860;4.286;2023-06-05T08:00:27;9.52;;;4.88;;
22737;SDS011;11536;50.860;4.286;2023-06-05T08:02:53;9.38;;;4.70;;
22737;SDS011;11536;50.860;4.286;2023-06-05T08:05:19;8.77;;;4.30;;
22737;SDS011;11536;50.860;4.286;2023-06-05T08:07:45;8.45;;;3.67;;
22737;SDS011;11536;50.860;4.286;2023-06-05T08:10:12;8.50;;;4.55;;
22737;SDS011;11536;50.860;4.286;2023-06-05T08:12:38;11.00;;;4.78;;
22737;SDS011;11536;50.860;4.286;2023-06-05T08:15:04;8.55;;;3.90;;
22737;SDS011;11536;50.860;4.286;2023-06-05T08:17:31;12.30;;;4.45;;
22737;SDS011;11536;50.860;4.286;2023-06-05T08:20:17;11.38;;;4.93;;
22737;SDS011;11536;50.860;4.286;2023-06-05T08:22:44;11.63;;;5.03;;
22737;SDS011;11536;50.860;4.286;2023-06-05T08:25:09;7.25;;;3.65;;
22737;SDS011;11536;50.860;4.286;2023-06-05T08:27:35;11.00;;;4.53;;
22737;SDS011;11536;50.860;4.286;2023-06-05T08:30:01;10.32;;;4.10;;
22737;SDS011;11536;50.860;4.286;2023-06-05T08:32:26;9.18;;;4.32;;
22737;SDS011;11536;50.860;4.286;2023-06-05T08:34:52;11.43;;;4.25;;
22737;SDS011;11536;50.860;4.286;2023-06-05T08:37:17;9.65;;;4.45;;
22737;SDS011;11536;50.860;4.286;2023-06-05T08:39:44;8.18;;;4.22;;
22737;SDS011;11536;50.860;4.286;2023-06-05T08:42:10;8.20;;;3.95;;
22737;SDS011;11536;50.860;4.286;2023-06-05T08:44:37;10.20;;;4.30;;
22737;SDS011;11536;50.860;4.286;2023-06-05T08:47:03;9.85;;;4.65;;
22737;SDS011;11536;50.860;4.286;2023-06-05T08:49:29;8.43;;;4.07;;
22737;SDS011;11536;50.860;4.286;2023-06-05T08:52:02;8.32;;;4.07;;
22737;SDS011;11536;50.860;4.286;2023-06-05T08:54:48;8.63;;;3.92;;
22737;SDS011;11536;50.860;4.286;2023-06-05T08:57:15;10.02;;;4.70;;
22737;SDS011;11536;50.860;4.286;2023-06-05T08:59:41;8.80;;;4.10;;
22737;SDS011;11536;50.860;4.286;2023-06-05T09:02:08;9.48;;;4.47;;
22737;SDS011;11536;50.860;4.286;2023-06-05T09:04:35;9.13;;;3.85;;
22737;SDS011;11536;50.860;4.286;2023-06-05T09:07:00;9.23;;;4.68;;
22737;SDS011;11536;50.860;4.286;2023-06-05T09:09:26;10.20;;;3.75;;
22737;SDS011;11536;50.860;4.286;2023-06-05T09:12:05;8.50;;;4.28;;
22737;SDS011;11536;50.860;4.286;2023-06-05T09:14:32;12.23;;;4.53;;
22737;SDS011;11536;50.860;4.286;2023-06-05T09:16:58;13.30;;;5.40;;
22737;SDS011;11536;50.860;4.286;2023-06-05T09:19:37;10.10;;;4.53;;
22737;SDS011;11536;50.860;4.286;2023-06-05T09:22:07;12.27;;;4.32;;
22737;SDS011;11536;50.860;4.286;2023-06-05T09:24:34;8.88;;;4.20;;
22737;SDS011;11536;50.860;4.286;2023-06-05T09:27:01;9.52;;;4.32;;
22737;SDS011;11536;50.860;4.286;2023-06-05T09:29:31;8.68;;;4.53;;
22737;SDS011;11536;50.860;4.286;2023-06-05T09:31:59;9.35;;;4.65;;
22737;SDS011;11536;50.860;4.286;2023-06-05T09:34:27;10.27;;;4.63;;
22737;SDS011;11536;50.860;4.286;2023-06-05T09:37:04;8.10;;;4.07;;
22737;SDS011;11536;50.860;4.286;2023-06-05T09:39:32;12.35;;;4.43;;
22737;SDS011;11536;50.860;4.286;2023-06-05T09:42:11;7.97;;;3.85;;
22737;SDS011;11536;50.860;4.286;2023-06-05T09:44:37;11.00;;;4.00;;
22737;SDS011;11536;50.860;4.286;2023-06-05T09:47:03;8.98;;;3.83;;
22737;SDS011;11536;50.860;4.286;2023-06-05T09:52:06;10.40;;;4.28;;
22737;SDS011;11536;50.860;4.286;2023-06-05T09:54:34;8.75;;;4.15;;
22737;SDS011;11536;50.860;4.286;2023-06-05T09:57:07;8.23;;;4.03;;
22737;SDS011;11536;50.860;4.286;2023-06-05T09:59:40;9.10;;;3.58;;
22737;SDS011;11536;50.860;4.286;2023-06-05T10:02:10;9.35;;;4.53;;
22737;SDS011;11536;50.860;4.286;2023-06-05T10:04:57;9.63;;;3.72;;
22737;SDS011;11536;50.860;4.286;2023-06-05T10:07:28;9.88;;;3.72;;
22737;SDS011;11536;50.860;4.286;2023-06-05T10:09:56;10.00;;;3.65;;
22737;SDS011;11536;50.860;4.286;2023-06-05T10:12:22;9.07;;;4.25;;
22737;SDS011;11536;50.860;4.286;2023-06-05T10:14:52;8.88;;;3.97;;
22737;SDS011;11536;50.860;4.286;2023-06-05T10:17:19;9.20;;;3.80;;
22737;SDS011;11536;50.860;4.286;2023-06-05T10:19:46;11.55;;;4.25;;
22737;SDS011;11536;50.860;4.286;2023-06-05T10:22:12;10.70;;;4.15;;
22737;SDS011;11536;50.860;4.286;2023-06-05T10:24:41;8.77;;;4.10;;
22737;SDS011;11536;50.860;4.286;2023-06-05T10:27:32;6.85;;;3.67;;
22737;SDS011;11536;50.860;4.286;2023-06-05T10:32:38;9.68;;;3.67;;
22737;SDS011;11536;50.860;4.286;2023-06-05T10:35:16;8.13;;;3.67;;
22737;SDS011;11536;50.860;4.286;2023-06-05T10:37:59;7.72;;;3.60;;
22737;SDS011;11536;50.860;4.286;2023-06-05T10:40:42;9.02;;;4.47;;
22737;SDS011;11536;50.860;4.286;2023-06-05T10:43:32;9.20;;;3.13;;
22737;SDS011;11536;50.860;4.286;2023-06-05T10:46:01;9.77;;;4.25;;
22737;SDS011;11536;50.860;4.286;2023-06-05T10:54:15;7.90;;;3.50;;
22737;SDS011;11536;50.860;4.286;2023-06-05T10:57:05;6.57;;;3.42;;
22737;SDS011;11536;50.860;4.286;2023-06-05T10:59:32;8.77;;;3.55;;
22737;SDS011;11536;50.860;4.286;2023-06-05T11:07:18;9.98;;;3.88;;
22737;SDS011;11536;50.860;4.286;2023-06-05T11:15:05;8.45;;;3.45;;
22737;SDS011;11536;50.860;4.286;2023-06-05T11:17:36;10.32;;;3.83;;
22737;SDS011;11536;50.860;4.286;2023-06-05T11:20:04;9.85;;;4.13;;
22737;SDS011;11536;50.860;4.286;2023-06-05T11:22:50;7.97;;;2.85;;
22737;SDS011;11536;50.860;4.286;2023-06-05T11:30:29;10.75;;;3.20;;
22737;SDS011;11536;50.860;4.286;2023-06-05T11:32:57;9.13;;;3.40;;
22737;SDS011;11536;50.860;4.286;2023-06-05T11:35:33;7.90;;;3.20;;
22737;SDS011;11536;50.860;4.286;2023-06-05T11:40:58;6.40;;;3.40;;
22737;SDS011;11536;50.860;4.286;2023-06-05T11:43:24;7.72;;;3.10;;
22737;SDS011;11536;50.860;4.286;2023-06-05T11:45:51;6.63;;;2.65;;
22737;SDS011;11536;50.860;4.286;2023-06-05T11:48:18;8.27;;;3.53;;
22737;SDS011;11536;50.860;4.286;2023-06-05T11:53:27;5.95;;;2.88;;
22737;SDS011;11536;50.860;4.286;2023-06-05T11:55:54;8.00;;;3.08;;
22737;SDS011;11536;50.860;4.286;2023-06-05T11:58:31;7.55;;;3.15;;
22737;SDS011;11536;50.860;4.286;2023-06-05T12:03:34;7.85;;;3.30;;
22737;SDS011;11536;50.860;4.286;2023-06-05T12:06:01;6.43;;;3.10;;
22737;SDS011;11536;50.860;4.286;2023-06-05T12:08:30;8.73;;;2.35;;
22737;SDS011;11536;50.860;4.286;2023-06-05T12:10:58;6.18;;;2.97;;
22737;SDS011;11536;50.860;4.286;2023-06-05T12:14:10;8.15;;;3.15;;
22737;SDS011;11536;50.860;4.286;2023-06-05T12:16:12;10.52;;;3.30;;
22737;SDS011;11536;50.860;4.286;2023-06-05T12:18:38;7.20;;;2.80;;
22737;SDS011;11536;50.860;4.286;2023-06-05T12:21:04;7.00;;;3.17;;
22737;SDS011;11536;50.860;4.286;2023-06-05T12:23:31;6.18;;;2.75;;
22737;SDS011;11536;50.860;4.286;2023-06-05T12:26:01;14.85;;;3.08;;
22737;SDS011;11536;50.860;4.286;2023-06-05T12:28:28;6.85;;;3.15;;
22737;SDS011;11536;50.860;4.286;2023-06-05T12:30:55;6.95;;;2.85;;
22737;SDS011;11536;50.860;4.286;2023-06-05T12:33:21;7.07;;;2.88;;
22737;SDS011;11536;50.860;4.286;2023-06-05T12:36:01;6.25;;;2.50;;
22737;SDS011;11536;50.860;4.286;2023-06-05T12:38:36;8.40;;;3.35;;
22737;SDS011;11536;50.860;4.286;2023-06-05T12:41:02;6.30;;;2.40;;
22737;SDS011;11536;50.860;4.286;2023-06-05T12:43:31;9.80;;;2.40;;
22737;SDS011;11536;50.860;4.286;2023-06-05T12:45:57;5.70;;;2.67;;
22737;SDS011;11536;50.860;4.286;2023-06-05T12:48:22;8.38;;;2.45;;
22737;SDS011;11536;50.860;4.286;2023-06-05T12:50:48;7.20;;;3.28;;
22737;SDS011;11536;50.860;4.286;2023-06-05T12:53:15;7.47;;;2.90;;
22737;SDS011;11536;50.860;4.286;2023-06-05T12:55:40;6.80;;;2.40;;
22737;SDS011;11536;50.860;4.286;2023-06-05T12:58:06;5.43;;;2.38;;
22737;SDS011;11536;50.860;4.286;2023-06-05T13:00:31;6.45;;;2.55;;
22737;SDS011;11536;50.860;4.286;2023-06-05T13:02:57;8.25;;;2.38;;
22737;SDS011;11536;50.860;4.286;2023-06-05T13:05:22;7.07;;;2.28;;
22737;SDS011;11536;50.860;4.286;2023-06-05T13:07:48;5.65;;;2.40;;
22737;SDS011;11536;50.860;4.286;2023-06-05T13:10:17;5.47;;;2.17;;
22737;SDS011;11536;50.860;4.286;2023-06-05T13:12:58;6.78;;;1.55;;
22737;SDS011;11536;50.860;4.286;2023-06-05T13:15:24;7.45;;;2.50;;
22737;SDS011;11536;50.860;4.286;2023-06-05T13:17:50;6.32;;;2.20;;
22737;SDS011;11536;50.860;4.286;2023-06-05T13:20:15;5.35;;;1.90;;
22737;SDS011;11536;50.860;4.286;2023-06-05T13:22:41;5.13;;;2.00;;
22737;SDS011;11536;50.860;4.286;2023-06-05T13:25:07;6.40;;;2.20;;
22737;SDS011;11536;50.860;4.286;2023-06-05T13:27:34;4.68;;;1.90;;
22737;SDS011;11536;50.860;4.286;2023-06-05T13:30:00;4.50;;;1.77;;
22737;SDS011;11536;50.860;4.286;2023-06-05T13:32:27;9.55;;;2.20;;
22737;SDS011;11536;50.860;4.286;2023-06-05T13:34:53;5.85;;;2.10;;
22737;SDS011;11536;50.860;4.286;2023-06-05T13:37:18;9.40;;;1.95;;
22737;SDS011;11536;50.860;4.286;2023-06-05T13:39:45;6.15;;;2.03;;
22737;SDS011;11536;50.860;4.286;2023-06-05T13:42:11;4.60;;;2.00;;
22737;SDS011;11536;50.860;4.286;2023-06-05T13:44:36;7.60;;;2.28;;
22737;SDS011;11536;50.860;4.286;2023-06-05T13:47:02;4.88;;;1.55;;
22737;SDS011;11536;50.860;4.286;2023-06-05T13:49:29;5.65;;;2.17;;
22737;SDS011;11536;50.860;4.286;2023-06-05T13:51:56;6.13;;;2.00;;
22737;SDS011;11536;50.860;4.286;2023-06-05T13:54:23;5.03;;;1.90;;
22737;SDS011;11536;50.860;4.286;2023-06-05T13:56:49;7.97;;;2.33;;
22737;SDS011;11536;50.860;4.286;2023-06-05T13:59:17;8.90;;;2.22;;
22737;SDS011;11536;50.860;4.286;2023-06-05T14:01:43;5.70;;;2.08;;
22737;SDS011;11536;50.860;4.286;2023-06-05T14:04:09;7.03;;;2.22;;
22737;SDS011;11536;50.860;4.286;2023-06-05T14:06:35;5.50;;;2.05;;
22737;SDS011;11536;50.860;4.286;2023-06-05T14:09:03;4.63;;;2.20;;
22737;SDS011;11536;50.860;4.286;2023-06-05T14:11:30;4.50;;;2.00;;
22737;SDS011;11536;50.860;4.286;2023-06-05T14:13:55;4.88;;;1.90;;
22737;SDS011;11536;50.860;4.286;2023-06-05T14:16:21;5.30;;;2.00;;
22737;SDS011;11536;50.860;4.286;2023-06-05T14:18:47;5.20;;;2.00;;
22737;SDS011;11536;50.860;4.286;2023-06-05T14:21:13;6.05;;;2.03;;
22737;SDS011;11536;50.860;4.286;2023-06-05T14:23:38;4.70;;;1.60;;
22737;SDS011;11536;50.860;4.286;2023-06-05T14:26:05;5.38;;;2.05;;
22737;SDS011;11536;50.860;4.286;2023-06-05T14:28:30;4.57;;;1.63;;
22737;SDS011;11536;50.860;4.286;2023-06-05T14:30:56;6.95;;;2.33;;
22737;SDS011;11536;50.860;4.286;2023-06-05T14:33:22;7.45;;;2.35;;
22737;SDS011;11536;50.860;4.286;2023-06-05T14:35:48;6.97;;;2.30;;
22737;SDS011;11536;50.860;4.286;2023-06-05T14:38:14;8.35;;;2.20;;
22737;SDS011;11536;50.860;4.286;2023-06-05T14:40:40;5.60;;;1.80;;
22737;SDS011;11536;50.860;4.286;2023-06-05T14:43:06;3.88;;;1.83;;
22737;SDS011;11536;50.860;4.286;2023-06-05T14:45:33;4.25;;;2.00;;
22737;SDS011;11536;50.860;4.286;2023-06-05T14:48:04;6.18;;;1.80;;
22737;SDS011;11536;50.860;4.286;2023-06-05T14:50:29;8.30;;;2.65;;
22737;SDS011;11536;50.860;4.286;2023-06-05T14:52:55;6.20;;;2.00;;
22737;SDS011;11536;50.860;4.286;2023-06-05T14:55:22;6.20;;;2.35;;
22737;SDS011;11536;50.860;4.286;2023-06-05T14:57:47;5.32;;;1.85;;
22737;SDS011;11536;50.860;4.286;2023-06-05T15:00:13;6.70;;;2.00;;
22737;SDS011;11536;50.860;4.286;2023-06-05T15:02:39;5.15;;;2.40;;
22737;SDS011;11536;50.860;4.286;2023-06-05T15:05:05;5.32;;;2.20;;
22737;SDS011;11536;50.860;4.286;2023-06-05T15:07:38;5.30;;;2.38;;
22737;SDS011;11536;50.860;4.286;2023-06-05T15:10:07;5.60;;;2.40;;
22737;SDS011;11536;50.860;4.286;2023-06-05T15:12:34;4.60;;;2.10;;
22737;SDS011;11536;50.860;4.286;2023-06-05T15:15:00;5.68;;;2.30;;
22737;SDS011;11536;50.860;4.286;2023-06-05T15:17:26;6.82;;;2.78;;
22737;SDS011;11536;50.860;4.286;2023-06-05T15:19:52;4.85;;;2.22;;
22737;SDS011;11536;50.860;4.286;2023-06-05T15:22:18;5.07;;;2.38;;
22737;SDS011;11536;50.860;4.286;2023-06-05T15:24:44;10.32;;;2.90;;
22737;SDS011;11536;50.860;4.286;2023-06-05T15:27:12;3.97;;;2.00;;